createdAt,value
2017-09-20T00:01:44.489Z,42.50
2017-09-20T00:04:13.492Z,38.90
2017-09-20T00:06:41.756Z,54.07
2017-09-20T00:09:10.774Z,38.50
2017-09-20T00:11:39.063Z,41.90
2017-09-20T00:14:07.296Z,41.57
2017-09-20T00:16:36.331Z,53.20
2017-09-20T00:19:04.595Z,42.87
2017-09-20T00:21:32.868Z,49.73
2017-09-20T00:24:01.111Z,48.53
2017-09-20T00:26:30.163Z,47.43
2017-09-20T00:28:58.437Z,53.40
2017-09-20T00:31:26.673Z,58.63
2017-09-20T00:33:55.674Z,35.47
2017-09-20T00:36:23.947Z,48.83
2017-09-20T00:38:53.059Z,41.03
2017-09-20T00:41:21.326Z,42.00
2017-09-20T00:43:50.394Z,48.13
2017-09-20T00:46:19.771Z,43.20
2017-09-20T00:48:48.052Z,44.23
2017-09-20T00:51:16.308Z,42.93
2017-09-20T00:53:44.575Z,51.97
2017-09-20T00:56:12.858Z,48.17
2017-09-20T00:58:41.107Z,39.73
2017-09-20T01:01:09.428Z,55.17
2017-09-20T01:03:37.705Z,52.37
2017-09-20T01:06:05.949Z,47.03
2017-09-20T01:08:34.990Z,41.17
2017-09-20T01:11:03.246Z,37.93
2017-09-20T01:13:31.518Z,51.67
2017-09-20T01:15:59.782Z,42.60
2017-09-20T01:18:28.068Z,45.07
2017-09-20T01:21:09.177Z,44.63
2017-09-20T01:23:37.428Z,49.60
2017-09-20T01:26:05.688Z,37.37
2017-09-20T01:28:33.998Z,42.77
2017-09-20T01:31:02.295Z,39.47
2017-09-20T01:33:30.601Z,47.20
2017-09-20T01:35:58.789Z,32.03
2017-09-20T01:38:27.846Z,38.37
2017-09-20T01:40:56.122Z,38.70
2017-09-20T01:43:24.357Z,48.93
2017-09-20T01:45:52.630Z,45.97
2017-09-20T01:48:20.878Z,46.50
2017-09-20T01:50:49.144Z,53.97
2017-09-20T01:53:17.374Z,47.23
2017-09-20T01:55:45.634Z,65.90
2017-09-20T01:58:14.642Z,48.43
2017-09-20T02:00:42.926Z,46.53
2017-09-20T02:03:11.203Z,43.33
2017-09-20T02:05:39.470Z,63.10
2017-09-20T02:08:07.717Z,58.80
2017-09-20T02:10:36.749Z,56.70
2017-09-20T02:13:05.016Z,55.30
2017-09-20T02:15:33.296Z,52.70
2017-09-20T02:18:01.551Z,43.27
2017-09-20T02:20:30.595Z,51.80
2017-09-20T02:22:58.867Z,55.43
2017-09-20T02:25:27.116Z,45.53
2017-09-20T02:27:55.393Z,49.30
2017-09-20T02:30:23.660Z,51.80
2017-09-20T02:32:52.666Z,45.60
2017-09-20T02:35:20.935Z,43.13
2017-09-20T02:37:50.006Z,54.80
2017-09-20T02:40:19.050Z,54.47
2017-09-20T02:42:47.326Z,51.47
2017-09-20T02:45:15.562Z,48.83
2017-09-20T02:47:44.621Z,50.73
2017-09-20T02:50:12.867Z,58.63
2017-09-20T02:52:41.126Z,57.70
2017-09-20T02:55:10.119Z,53.13
2017-09-20T02:57:39.130Z,62.77
2017-09-20T03:00:07.440Z,72.17
2017-09-20T03:02:35.702Z,57.17
2017-09-20T03:05:03.966Z,72.53
2017-09-20T03:07:32.232Z,65.97
2017-09-20T03:10:01.244Z,69.47
2017-09-20T03:12:29.490Z,63.73
2017-09-20T03:14:58.504Z,66.20
2017-09-20T03:17:26.792Z,80.60
2017-09-20T03:19:55.076Z,68.63
2017-09-20T03:22:23.310Z,62.33
2017-09-20T03:24:52.316Z,82.33
2017-09-20T03:27:21.343Z,59.63
2017-09-20T03:29:49.615Z,58.50
2017-09-20T03:32:17.874Z,67.93
2017-09-20T03:34:46.876Z,61.73
2017-09-20T03:37:15.919Z,63.40
2017-09-20T03:39:44.174Z,65.20
2017-09-20T03:42:12.455Z,64.07
2017-09-20T03:44:40.722Z,58.53
2017-09-20T03:47:09.019Z,72.53
2017-09-20T03:49:37.277Z,56.90
2017-09-20T03:52:05.502Z,52.37
2017-09-20T03:54:34.498Z,55.83
2017-09-20T03:57:02.769Z,47.90
2017-09-20T03:59:31.036Z,52.47
2017-09-20T04:01:59.297Z,62.73
2017-09-20T04:04:27.576Z,63.73
2017-09-20T04:06:55.843Z,76.77
2017-09-20T04:09:24.092Z,70.67
2017-09-20T04:11:52.376Z,55.70
2017-09-20T04:14:20.630Z,64.47
2017-09-20T04:16:49.657Z,65.33
2017-09-20T04:19:17.882Z,58.57
2017-09-20T04:21:46.890Z,68.33
2017-09-20T04:24:15.931Z,56.60
2017-09-20T04:26:44.200Z,88.03
2017-09-20T04:29:12.486Z,67.27
2017-09-20T04:31:40.760Z,72.23
2017-09-20T04:34:09.101Z,66.13
2017-09-20T04:36:38.142Z,72.80
2017-09-20T04:39:06.406Z,58.57
2017-09-20T04:41:34.686Z,65.40
2017-09-20T04:44:02.961Z,64.30
2017-09-20T04:46:31.234Z,73.70
2017-09-20T04:48:59.501Z,58.67
2017-09-20T04:51:27.740Z,81.93
2017-09-20T04:53:57.502Z,68.40
2017-09-20T04:56:25.758Z,65.80
2017-09-20T04:58:54.016Z,64.17
2017-09-20T05:01:23.015Z,54.97
2017-09-20T05:03:52.052Z,62.83
2017-09-20T05:06:20.327Z,63.53
2017-09-20T05:08:48.583Z,65.77
2017-09-20T05:11:16.827Z,69.00
2017-09-20T05:13:45.097Z,65.40
2017-09-20T05:16:13.331Z,81.00
2017-09-20T05:18:42.086Z,76.13
2017-09-20T05:21:11.121Z,69.17
2017-09-20T05:23:39.430Z,76.03
2017-09-20T05:26:07.725Z,71.73
2017-09-20T05:28:35.956Z,71.23
2017-09-20T05:31:04.222Z,72.80
2017-09-20T05:33:32.501Z,73.17
2017-09-20T05:36:00.767Z,91.47
2017-09-20T05:38:29.012Z,86.23
2017-09-20T05:40:58.034Z,74.60
2017-09-20T05:43:26.311Z,74.37
2017-09-20T05:45:54.605Z,66.90
2017-09-20T05:48:22.877Z,79.53
2017-09-20T05:50:51.130Z,87.20
2017-09-20T05:53:20.543Z,73.07
2017-09-20T05:55:48.837Z,66.80
2017-09-20T05:58:17.077Z,79.13
2017-09-20T06:00:45.327Z,90.53
2017-09-20T06:03:13.635Z,75.80
2017-09-20T06:05:41.856Z,88.67
2017-09-20T06:08:10.111Z,87.80
2017-09-20T06:10:38.425Z,74.57
2017-09-20T06:13:06.687Z,86.97
2017-09-20T06:15:34.935Z,85.67
2017-09-20T06:18:03.195Z,87.60
2017-09-20T06:20:32.234Z,92.57
2017-09-20T06:23:00.509Z,74.87
2017-09-20T06:25:28.788Z,80.70
2017-09-20T06:27:57.042Z,81.83
2017-09-20T06:30:25.300Z,87.13
2017-09-20T06:32:54.329Z,77.17
2017-09-20T06:35:22.573Z,73.93
2017-09-20T06:37:51.603Z,86.17
2017-09-20T06:40:19.883Z,72.80
2017-09-20T06:42:48.145Z,83.03
2017-09-20T06:45:16.428Z,73.10
2017-09-20T06:47:44.711Z,76.93
2017-09-20T06:50:12.962Z,67.00
2017-09-20T06:52:41.256Z,95.83
2017-09-20T06:55:09.517Z,97.43
2017-09-20T06:57:38.539Z,90.10
2017-09-20T07:00:06.791Z,93.73
2017-09-20T07:02:35.070Z,98.60
2017-09-20T07:05:03.323Z,86.07
2017-09-20T07:07:31.589Z,93.27
2017-09-20T07:09:59.884Z,94.43
2017-09-20T07:12:28.134Z,76.20
2017-09-20T07:14:56.391Z,88.63
2017-09-20T07:17:24.702Z,89.43
2017-09-20T07:19:52.954Z,98.17
2017-09-20T07:22:21.265Z,65.17
2017-09-20T07:24:49.483Z,95.60
2017-09-20T07:27:17.758Z,78.93
2017-09-20T07:29:46.819Z,77.90
2017-09-20T07:32:15.856Z,82.70
2017-09-20T07:34:44.151Z,76.97
2017-09-20T07:37:12.425Z,74.90
2017-09-20T07:39:40.710Z,95.10
2017-09-20T07:42:09.032Z,81.17
2017-09-20T07:44:37.541Z,72.03
2017-09-20T07:47:05.790Z,92.67
2017-09-20T07:49:34.825Z,81.27
2017-09-20T07:52:03.108Z,73.67
2017-09-20T07:54:31.434Z,81.17
2017-09-20T07:56:59.705Z,75.00
2017-09-20T07:59:27.967Z,73.83
2017-09-20T08:01:56.239Z,76.37
2017-09-20T08:04:24.490Z,82.63
2017-09-20T08:06:53.460Z,85.00
2017-09-20T08:09:23.586Z,76.77
2017-09-20T08:11:53.735Z,67.03
2017-09-20T08:14:22.011Z,70.87
2017-09-20T08:16:50.249Z,56.47
2017-09-20T08:19:18.551Z,68.60
2017-09-20T08:21:46.787Z,61.30
2017-09-20T08:24:15.836Z,67.53
2017-09-20T08:26:44.078Z,65.57
2017-09-20T08:29:13.117Z,60.93
2017-09-20T08:31:41.387Z,59.73
2017-09-20T08:34:09.708Z,62.30
2017-09-20T08:36:37.941Z,64.90
2017-09-20T08:39:06.220Z,59.27
2017-09-20T08:41:34.475Z,75.97
2017-09-20T08:44:02.732Z,67.37
2017-09-20T08:46:30.996Z,52.10
2017-09-20T08:49:00.022Z,63.00
2017-09-20T08:51:28.307Z,54.80
2017-09-20T08:53:56.578Z,62.23
2017-09-20T08:56:24.849Z,47.90
2017-09-20T08:58:53.883Z,67.00
2017-09-20T09:01:22.157Z,53.63
2017-09-20T09:03:50.427Z,47.23
2017-09-20T09:06:18.768Z,56.07
2017-09-20T09:08:48.158Z,63.93
2017-09-20T09:11:16.425Z,45.57
2017-09-20T09:13:44.655Z,47.80
2017-09-20T09:16:12.940Z,42.07
2017-09-20T09:18:41.192Z,51.30
2017-09-20T09:21:09.462Z,48.30
2017-09-20T09:23:37.715Z,43.33
2017-09-20T09:26:05.999Z,49.13
2017-09-20T09:28:34.383Z,39.23
2017-09-20T09:31:03.407Z,36.40
2017-09-20T09:33:31.670Z,32.60
2017-09-20T09:35:59.948Z,43.80
2017-09-20T09:38:28.298Z,36.00
2017-09-20T09:40:56.583Z,29.40
2017-09-20T09:43:24.831Z,36.83
2017-09-20T09:45:53.096Z,38.17
2017-09-20T09:48:21.374Z,43.90
2017-09-20T09:50:49.606Z,52.20
2017-09-20T09:53:17.870Z,38.07
2017-09-20T09:55:46.915Z,42.03
2017-09-20T09:58:15.157Z,38.93
2017-09-20T10:00:43.419Z,39.50
2017-09-20T10:03:11.688Z,36.63
2017-09-20T10:05:39.932Z,42.27
2017-09-20T10:08:08.229Z,36.80
2017-09-20T10:10:36.471Z,31.40
2017-09-20T10:13:04.747Z,38.87
2017-09-20T10:15:33.008Z,42.33
2017-09-20T10:18:02.053Z,38.37
2017-09-20T10:20:30.307Z,35.50
2017-09-20T10:22:58.576Z,50.73
2017-09-20T10:25:26.855Z,44.80
2017-09-20T10:27:55.104Z,33.53
2017-09-20T10:30:23.381Z,36.73
2017-09-20T10:32:51.677Z,36.53
2017-09-20T10:35:19.963Z,32.37
2017-09-20T10:37:48.223Z,33.53
2017-09-20T10:40:16.478Z,32.47
2017-09-20T10:42:44.777Z,33.87
2017-09-20T10:45:13.044Z,27.77
2017-09-20T10:47:42.027Z,39.03
2017-09-20T10:50:11.068Z,28.00
2017-09-20T10:52:39.305Z,19.80
2017-09-20T10:55:08.367Z,31.77
2017-09-20T10:57:36.614Z,19.67
2017-09-20T11:00:04.872Z,21.33
2017-09-20T11:02:33.902Z,22.77
2017-09-20T11:05:02.127Z,21.00
2017-09-20T11:07:31.166Z,30.37
2017-09-20T11:10:00.169Z,17.23
2017-09-20T11:12:28.448Z,22.03
2017-09-20T11:14:56.726Z,17.67
2017-09-20T11:17:24.981Z,21.40
2017-09-20T11:19:53.266Z,18.40
2017-09-20T11:22:21.524Z,15.73
2017-09-20T11:24:49.798Z,14.97
2017-09-20T11:27:18.076Z,17.67
2017-09-20T11:29:47.084Z,16.70
2017-09-20T11:32:15.380Z,15.00
2017-09-20T11:34:43.618Z,18.23
2017-09-20T11:37:11.928Z,18.63
2017-09-20T11:39:40.190Z,20.23
2017-09-20T11:42:08.487Z,16.30
2017-09-20T11:44:36.910Z,22.37
2017-09-20T11:47:05.190Z,23.60
2017-09-20T11:49:33.459Z,21.77
2017-09-20T11:52:01.763Z,16.73
2017-09-20T11:54:30.067Z,20.27
2017-09-20T11:56:58.337Z,13.40
2017-09-20T11:59:26.679Z,16.00
2017-09-20T12:01:55.717Z,17.37
2017-09-20T12:04:23.970Z,20.50
2017-09-20T12:06:52.300Z,17.63
2017-09-20T12:09:20.566Z,20.37
2017-09-20T12:11:48.841Z,21.53
2017-09-20T12:14:17.109Z,18.87
2017-09-20T12:16:45.369Z,21.67
2017-09-20T12:19:13.657Z,18.50
2017-09-20T12:21:41.953Z,19.70
2017-09-20T12:24:10.196Z,18.10
2017-09-20T12:26:38.487Z,20.07
2017-09-20T12:29:06.755Z,21.80
2017-09-20T12:31:35.021Z,24.37
2017-09-20T12:34:03.326Z,20.70
2017-09-20T12:36:31.586Z,28.57
2017-09-20T12:38:59.950Z,19.63
2017-09-20T12:41:29.001Z,22.20
2017-09-20T12:43:57.268Z,25.70
2017-09-20T12:46:25.551Z,24.80
2017-09-20T12:48:53.791Z,18.47
2017-09-20T12:51:22.053Z,14.93
2017-09-20T12:53:51.078Z,24.13
2017-09-20T12:56:19.347Z,20.10
2017-09-20T12:58:47.628Z,15.43
2017-09-20T13:01:15.877Z,21.33
2017-09-20T13:03:44.915Z,20.93
2017-09-20T13:06:13.187Z,19.50
2017-09-20T13:08:41.485Z,20.93
2017-09-20T13:11:09.737Z,20.43
2017-09-20T13:13:38.010Z,30.30
2017-09-20T13:16:06.307Z,21.30
2017-09-20T13:18:34.567Z,25.03
2017-09-20T13:21:03.555Z,22.37
2017-09-20T13:23:31.867Z,19.90
2017-09-20T13:26:00.156Z,26.30
2017-09-20T13:28:28.436Z,24.63
2017-09-20T13:30:57.885Z,22.77
2017-09-20T13:33:26.227Z,19.80
2017-09-20T13:35:55.298Z,20.40
2017-09-20T13:38:23.571Z,19.70
2017-09-20T13:40:51.855Z,28.03
2017-09-20T13:43:20.123Z,18.30
2017-09-20T13:45:48.420Z,20.73
2017-09-20T13:48:16.719Z,15.57
2017-09-20T13:50:45.775Z,20.43
2017-09-20T13:53:14.020Z,23.13
2017-09-20T13:55:42.288Z,20.30
2017-09-20T13:58:10.569Z,23.73
2017-09-20T14:00:38.843Z,27.47
2017-09-20T14:03:07.100Z,34.97
2017-09-20T14:05:36.137Z,42.43
2017-09-20T14:08:04.416Z,21.43
2017-09-20T14:10:32.699Z,21.13
2017-09-20T14:13:01.182Z,38.03
2017-09-20T14:15:29.539Z,26.53
2017-09-20T14:17:58.531Z,20.53
2017-09-20T14:20:26.849Z,17.73
2017-09-20T14:22:55.135Z,18.23
2017-09-20T14:25:24.203Z,20.73
2017-09-20T14:27:52.468Z,13.50
2017-09-20T14:30:21.086Z,45.33
2017-09-20T14:32:49.354Z,17.63
2017-09-20T14:35:17.699Z,12.87
2017-09-20T14:37:47.483Z,16.13
2017-09-20T14:40:16.581Z,18.40
2017-09-20T14:42:44.837Z,14.50
2017-09-20T14:45:13.090Z,12.30
2017-09-20T14:47:41.357Z,11.33
2017-09-20T14:50:09.588Z,16.03
2017-09-20T14:52:38.656Z,12.60
2017-09-20T14:55:06.906Z,18.20
2017-09-20T14:57:35.170Z,10.70
2017-09-20T15:00:03.477Z,13.83
2017-09-20T15:02:31.812Z,20.87
2017-09-20T15:05:00.887Z,15.07
2017-09-20T15:07:29.313Z,16.37
2017-09-20T15:09:57.576Z,16.27
2017-09-20T15:12:26.607Z,13.43
2017-09-20T15:14:54.930Z,11.03
2017-09-20T15:17:24.008Z,16.13
2017-09-20T15:19:52.275Z,8.90
2017-09-20T15:22:21.361Z,12.77
2017-09-20T15:24:49.701Z,23.73
2017-09-20T15:27:18.726Z,10.23
2017-09-20T15:29:47.008Z,13.07
2017-09-20T15:32:15.258Z,12.23
2017-09-20T15:34:43.544Z,12.23
2017-09-20T15:37:12.523Z,12.07
2017-09-20T15:39:40.820Z,10.67
2017-09-20T15:42:09.062Z,13.90
2017-09-20T15:44:37.343Z,8.37
2017-09-20T15:47:06.346Z,8.53
2017-09-20T15:49:34.628Z,7.13
2017-09-20T15:52:02.913Z,14.30
2017-09-20T15:54:31.156Z,21.20
2017-09-20T15:57:00.239Z,10.87
2017-09-20T15:59:28.514Z,11.37
2017-09-20T16:01:56.802Z,9.47
2017-09-20T16:04:25.865Z,12.63
2017-09-20T16:06:54.167Z,8.33
2017-09-20T16:09:22.481Z,9.43
2017-09-20T16:11:50.726Z,7.97
2017-09-20T16:14:20.490Z,7.93
2017-09-20T16:16:48.805Z,14.20
2017-09-20T16:19:17.060Z,20.57
2017-09-20T16:21:45.362Z,11.50
2017-09-20T16:24:13.697Z,19.70
2017-09-20T16:26:41.973Z,10.57
2017-09-20T16:29:10.233Z,10.77
2017-09-20T16:31:38.506Z,17.57
2017-09-20T16:34:08.379Z,12.37
2017-09-20T16:36:36.652Z,12.20
2017-09-20T16:39:04.951Z,8.60
2017-09-20T16:41:33.249Z,9.40
2017-09-20T16:44:01.530Z,11.30
2017-09-20T16:46:30.563Z,13.27
2017-09-20T16:48:59.029Z,17.47
2017-09-20T16:51:28.134Z,26.13
2017-09-20T16:53:56.449Z,12.80
2017-09-20T16:56:24.715Z,11.33
2017-09-20T16:58:52.964Z,9.30
2017-09-20T17:01:21.253Z,9.70
2017-09-20T17:03:49.546Z,11.70
2017-09-20T17:06:17.880Z,24.03
2017-09-20T17:08:46.130Z,10.50
2017-09-20T17:11:15.151Z,9.00
2017-09-20T17:13:44.203Z,20.00
2017-09-20T17:16:12.455Z,7.90
2017-09-20T17:18:40.800Z,19.93
2017-09-20T17:21:21.178Z,13.93
2017-09-20T17:27:02.978Z,10.00
2017-09-20T17:29:31.417Z,14.20
2017-09-20T17:31:59.674Z,19.77
2017-09-20T17:34:27.967Z,9.27
2017-09-20T17:46:10.412Z,8.33
2017-09-20T17:48:38.709Z,12.07
2017-09-20T17:51:07.083Z,12.80
2017-09-20T17:53:35.408Z,10.40
2017-09-20T17:56:04.512Z,18.57
2017-09-20T17:58:33.649Z,13.10
2017-09-20T18:01:02.660Z,14.93
2017-09-20T18:03:30.995Z,14.13
2017-09-20T18:05:59.680Z,10.23
2017-09-20T18:08:28.031Z,13.50
2017-09-20T18:10:56.314Z,14.47
2017-09-20T18:13:25.313Z,14.53
2017-09-20T18:15:53.734Z,20.03
2017-09-20T18:18:21.964Z,14.77
2017-09-20T18:20:50.330Z,25.73
2017-09-20T18:23:19.567Z,19.33
2017-09-20T18:25:48.688Z,22.27
2017-09-20T18:28:17.036Z,24.50
2017-09-20T18:30:46.152Z,23.13
2017-09-20T18:33:15.231Z,19.83
2017-09-20T18:35:43.636Z,21.40
2017-09-20T18:38:12.080Z,24.43
2017-09-20T18:40:40.412Z,22.67
2017-09-20T18:43:09.517Z,17.07
2017-09-20T18:45:37.921Z,21.33
2017-09-20T18:48:06.289Z,18.30
2017-09-20T18:50:34.639Z,20.43
2017-09-20T18:53:03.144Z,22.30
2017-09-20T18:55:31.463Z,15.63
2017-09-20T18:57:59.820Z,27.23
2017-09-20T19:00:28.092Z,19.73
2017-09-20T19:02:56.935Z,20.00
2017-09-20T19:05:26.045Z,33.63
2017-09-20T19:07:55.423Z,29.03
2017-09-20T19:10:25.658Z,25.20
2017-09-20T19:12:54.255Z,22.50
2017-09-20T19:15:23.426Z,21.77
2017-09-20T19:17:53.497Z,19.63
2017-09-20T19:20:21.926Z,24.20
2017-09-20T19:22:52.258Z,15.40
2017-09-20T19:25:21.489Z,17.93
2017-09-20T19:27:49.823Z,23.77
2017-09-20T19:30:18.200Z,16.83
2017-09-20T19:32:46.588Z,16.63
2017-09-20T19:35:14.937Z,19.70
2017-09-20T19:37:43.284Z,29.37
2017-09-20T19:40:11.637Z,22.50
2017-09-20T19:42:39.958Z,14.43
2017-09-20T19:45:08.317Z,12.93
2017-09-20T19:47:37.436Z,20.17
2017-09-20T19:50:05.748Z,15.40
2017-09-20T19:52:34.846Z,26.77
2017-09-20T19:55:04.481Z,18.03
2017-09-20T19:57:33.553Z,18.30
2017-09-20T20:00:01.898Z,20.40
2017-09-20T20:02:31.147Z,15.70
2017-09-20T20:04:59.425Z,13.90
2017-09-20T20:07:27.748Z,17.63
2017-09-20T20:09:56.038Z,18.87
2017-09-20T20:12:24.327Z,16.10
2017-09-20T20:14:52.758Z,23.47
2017-09-20T20:17:21.931Z,24.67
2017-09-20T20:19:50.215Z,22.57
2017-09-20T20:22:19.423Z,21.80
2017-09-20T20:24:47.734Z,20.00
2017-09-20T20:27:16.023Z,22.77
2017-09-20T20:29:44.305Z,24.23
2017-09-20T20:32:13.759Z,16.23
2017-09-20T20:34:42.852Z,18.97
2017-09-20T20:37:11.126Z,17.60
2017-09-20T20:39:39.402Z,15.30
2017-09-20T20:42:07.674Z,17.20
2017-09-20T20:44:35.992Z,24.00
2017-09-20T20:47:05.078Z,21.73
2017-09-20T20:49:33.334Z,17.53
2017-09-20T20:52:02.371Z,15.53
2017-09-20T20:54:30.664Z,17.47
2017-09-20T20:56:58.953Z,18.43
2017-09-20T20:59:27.231Z,29.00
2017-09-20T21:01:55.512Z,17.17
2017-09-20T21:04:23.851Z,25.73
2017-09-20T21:06:52.858Z,28.53
2017-09-20T21:09:21.121Z,24.20
2017-09-20T21:11:49.358Z,20.73
2017-09-20T21:14:17.621Z,20.17
2017-09-20T21:16:45.866Z,21.83
2017-09-20T21:19:14.128Z,16.63
2017-09-20T21:21:42.435Z,19.20
2017-09-20T21:24:10.706Z,16.40
2017-09-20T21:26:38.988Z,21.47
2017-09-20T21:29:07.273Z,21.63
2017-09-20T21:31:35.534Z,16.47
2017-09-20T21:34:03.762Z,14.23
2017-09-20T21:36:32.815Z,28.23
2017-09-20T21:39:01.075Z,17.23
2017-09-20T21:41:29.323Z,14.43
2017-09-20T21:43:58.457Z,21.00
2017-09-20T21:46:26.706Z,23.87
2017-09-20T21:48:54.987Z,32.43
2017-09-20T21:51:23.229Z,21.23
2017-09-20T21:53:51.481Z,16.20
2017-09-20T21:56:19.765Z,22.43
2017-09-20T21:58:48.007Z,21.20
2017-09-20T22:01:16.324Z,28.07
2017-09-20T22:03:44.600Z,41.30
2017-09-20T22:06:12.896Z,26.37
2017-09-20T22:08:41.161Z,15.60
2017-09-20T22:11:09.406Z,15.50
2017-09-20T22:13:37.673Z,18.57
2017-09-20T22:16:17.672Z,18.43
2017-09-20T22:19:03.972Z,16.63
2017-09-20T22:21:50.317Z,20.73
2017-09-20T22:24:36.678Z,17.37
2017-09-20T22:27:10.825Z,18.33
2017-09-20T22:29:38.861Z,20.90
2017-09-20T22:32:07.900Z,14.77
2017-09-20T22:34:36.246Z,27.80
2017-09-20T22:37:05.339Z,25.43
2017-09-20T22:39:33.557Z,19.27
2017-09-20T22:42:01.826Z,19.53
2017-09-20T22:44:30.124Z,19.67
2017-09-20T22:46:58.379Z,21.20
2017-09-20T22:49:27.379Z,23.97
2017-09-20T22:51:55.656Z,19.20
2017-09-20T22:54:24.654Z,24.57
2017-09-20T22:56:52.935Z,21.00
2017-09-20T22:59:21.175Z,23.63
2017-09-20T23:01:49.402Z,20.07
2017-09-20T23:04:17.646Z,25.60
2017-09-20T23:06:45.911Z,23.30
2017-09-20T23:09:14.956Z,34.87
2017-09-20T23:11:43.235Z,19.30
2017-09-20T23:14:11.477Z,26.83
2017-09-20T23:16:39.771Z,39.93
2017-09-20T23:19:08.007Z,20.67
2017-09-20T23:21:36.299Z,23.53
2017-09-20T23:24:05.346Z,37.10
2017-09-20T23:26:33.608Z,20.43
2017-09-20T23:29:01.846Z,34.70
2017-09-20T23:31:30.882Z,21.87
2017-09-20T23:33:59.124Z,36.27
2017-09-20T23:36:28.162Z,26.30
2017-09-20T23:38:56.405Z,25.30
2017-09-20T23:41:24.638Z,20.13
2017-09-20T23:43:52.908Z,23.10
2017-09-20T23:46:21.143Z,30.17
2017-09-20T23:48:49.454Z,27.07
2017-09-20T23:51:17.662Z,29.40
2017-09-20T23:53:46.266Z,32.67
2017-09-20T23:56:15.336Z,28.33
2017-09-20T23:58:43.542Z,20.90
